sensor_id;sensor_type;location;lat;lon;timestamp;temperature;humidity
17988;DHT22;9119;50.932;5.342;2023-06-10T00:00:38;23.60;99.90
17988;DHT22;9119;50.932;5.342;2023-06-10T00:03:03;23.60;99.90
17988;DHT22;9119;50.932;5.342;2023-06-10T00:05:29;23.50;99.90
17988;DHT22;9119;50.932;5.342;2023-06-10T00:07:56;23.40;99.90
17988;DHT22;9119;50.932;5.342;2023-06-10T00:10:23;23.40;99.90
17988;DHT22;9119;50.932;5.342;2023-06-10T00:12:49;23.30;99.90
17988;DHT22;9119;50.932;5.342;2023-06-10T00:15:17;23.30;99.90
17988;DHT22;9119;50.932;5.342;2023-06-10T00:17:42;23.40;99.90
17988;DHT22;9119;50.932;5.342;2023-06-10T00:20:09;23.20;99.90
17988;DHT22;9119;50.932;5.342;2023-06-10T00:22:37;23.20;99.90
17988;DHT22;9119;50.932;5.342;2023-06-10T00:25:05;23.10;99.90
17988;DHT22;9119;50.932;5.342;2023-06-10T00:27:32;23.20;99.90
17988;DHT22;9119;50.932;5.342;2023-06-10T00:30:04;23.20;99.90
17988;DHT22;9119;50.932;5.342;2023-06-10T00:32:35;23.20;99.90
17988;DHT22;9119;50.932;5.342;2023-06-10T00:35:02;23.10;99.90
17988;DHT22;9119;50.932;5.342;2023-06-10T00:37:28;23.10;99.90
17988;DHT22;9119;50.932;5.342;2023-06-10T00:39:54;23.10;99.90
17988;DHT22;9119;50.932;5.342;2023-06-10T00:42:20;23.00;99.90
17988;DHT22;9119;50.932;5.342;2023-06-10T00:44:47;23.00;99.90
17988;DHT22;9119;50.932;5.342;2023-06-10T00:47:13;22.90;99.90
17988;DHT22;9119;50.932;5.342;2023-06-10T00:49:40;23.00;99.90
17988;DHT22;9119;50.932;5.342;2023-06-10T00:52:06;23.00;99.90
17988;DHT22;9119;50.932;5.342;2023-06-10T00:54:32;23.10;99.90
17988;DHT22;9119;50.932;5.342;2023-06-10T00:57:01;23.10;99.90
17988;DHT22;9119;50.932;5.342;2023-06-10T00:59:28;23.00;99.90
17988;DHT22;9119;50.932;5.342;2023-06-10T01:01:54;23.00;99.90
17988;DHT22;9119;50.932;5.342;2023-06-10T01:04:21;23.00;99.90
17988;DHT22;9119;50.932;5.342;2023-06-10T01:07:09;22.80;99.90
17988;DHT22;9119;50.932;5.342;2023-06-10T01:10:01;22.80;99.90
17988;DHT22;9119;50.932;5.342;2023-06-10T01:12:41;22.70;99.90
17988;DHT22;9119;50.932;5.342;2023-06-10T01:15:12;22.70;99.90
17988;DHT22;9119;50.932;5.342;2023-06-10T01:18:04;22.70;99.90
17988;DHT22;9119;50.932;5.342;2023-06-10T01:20:34;22.70;99.90
17988;DHT22;9119;50.932;5.342;2023-06-10T01:23:03;22.80;99.90
17988;DHT22;9119;50.932;5.342;2023-06-10T01:25:29;22.70;99.90
17988;DHT22;9119;50.932;5.342;2023-06-10T01:33:47;22.50;99.90
17988;DHT22;9119;50.932;5.342;2023-06-10T01:36:15;22.40;99.90
17988;DHT22;9119;50.932;5.342;2023-06-10T01:38:45;22.40;99.90
17988;DHT22;9119;50.932;5.342;2023-06-10T01:41:13;22.40;99.90
17988;DHT22;9119;50.932;5.342;2023-06-10T01:43:40;22.40;99.90
17988;DHT22;9119;50.932;5.342;2023-06-10T01:46:07;22.30;99.90
17988;DHT22;9119;50.932;5.342;2023-06-10T01:48:33;22.40;99.90
17988;DHT22;9119;50.932;5.342;2023-06-10T01:50:59;22.40;99.90
17988;DHT22;9119;50.932;5.342;2023-06-10T01:53:25;22.40;99.90
17988;DHT22;9119;50.932;5.342;2023-06-10T01:55:50;22.40;99.90
17988;DHT22;9119;50.932;5.342;2023-06-10T01:58:16;22.50;99.90
17988;DHT22;9119;50.932;5.342;2023-06-10T02:00:42;22.40;99.90
17988;DHT22;9119;50.932;5.342;2023-06-10T02:03:07;22.40;99.90
17988;DHT22;9119;50.932;5.342;2023-06-10T02:05:33;22.40;99.90
17988;DHT22;9119;50.932;5.342;2023-06-10T02:08:01;22.30;99.90
17988;DHT22;9119;50.932;5.342;2023-06-10T02:10:26;22.20;99.90
17988;DHT22;9119;50.932;5.342;2023-06-10T02:12:52;22.20;99.90
17988;DHT22;9119;50.932;5.342;2023-06-10T02:15:18;22.20;99.90
17988;DHT22;9119;50.932;5.342;2023-06-10T02:17:43;22.20;99.90
17988;DHT22;9119;50.932;5.342;2023-06-10T02:20:10;22.10;99.90
17988;DHT22;9119;50.932;5.342;2023-06-10T02:22:37;21.90;99.90
17988;DHT22;9119;50.932;5.342;2023-06-10T02:25:03;21.80;99.90
17988;DHT22;9119;50.932;5.342;2023-06-10T02:27:33;21.70;99.90
17988;DHT22;9119;50.932;5.342;2023-06-10T02:29:58;21.70;99.90
17988;DHT22;9119;50.932;5.342;2023-06-10T02:32:24;21.60;99.90
17988;DHT22;9119;50.932;5.342;2023-06-10T02:34:51;21.60;99.90
17988;DHT22;9119;50.932;5.342;2023-06-10T02:37:17;21.60;99.90
17988;DHT22;9119;50.932;5.342;2023-06-10T02:39:43;21.50;99.90
17988;DHT22;9119;50.932;5.342;2023-06-10T02:42:09;21.50;99.90
17988;DHT22;9119;50.932;5.342;2023-06-10T02:44:35;21.50;99.90
17988;DHT22;9119;50.932;5.342;2023-06-10T02:47:01;21.50;99.90
17988;DHT22;9119;50.932;5.342;2023-06-10T02:49:27;21.40;99.90
17988;DHT22;9119;50.932;5.342;2023-06-10T02:51:55;21.40;99.90
17988;DHT22;9119;50.932;5.342;2023-06-10T02:54:22;21.20;99.90
17988;DHT22;9119;50.932;5.342;2023-06-10T02:56:49;21.20;99.90
17988;DHT22;9119;50.932;5.342;2023-06-10T02:59:14;21.20;99.90
17988;DHT22;9119;50.932;5.342;2023-06-10T03:01:41;21.30;99.90
17988;DHT22;9119;50.932;5.342;2023-06-10T03:04:07;21.30;99.90
17988;DHT22;9119;50.932;5.342;2023-06-10T03:06:33;21.20;99.90
17988;DHT22;9119;50.932;5.342;2023-06-10T03:09:02;21.20;99.90
17988;DHT22;9119;50.932;5.342;2023-06-10T03:11:30;21.20;99.90
17988;DHT22;9119;50.932;5.342;2023-06-10T03:13:57;21.10;99.90
17988;DHT22;9119;50.932;5.342;2023-06-10T03:16:22;21.10;99.90
17988;DHT22;9119;50.932;5.342;2023-06-10T03:18:50;21.10;99.90
17988;DHT22;9119;50.932;5.342;2023-06-10T03:21:16;21.00;99.90
17988;DHT22;9119;50.932;5.342;2023-06-10T03:23:42;21.00;99.90
17988;DHT22;9119;50.932;5.342;2023-06-10T03:26:07;20.90;99.90
17988;DHT22;9119;50.932;5.342;2023-06-10T03:28:35;20.90;99.90
17988;DHT22;9119;50.932;5.342;2023-06-10T03:31:01;20.90;99.90
17988;DHT22;9119;50.932;5.342;2023-06-10T03:33:26;20.90;99.90
17988;DHT22;9119;50.932;5.342;2023-06-10T03:35:52;20.90;99.90
17988;DHT22;9119;50.932;5.342;2023-06-10T03:38:18;20.80;99.90
17988;DHT22;9119;50.932;5.342;2023-06-10T03:40:44;20.80;99.90
17988;DHT22;9119;50.932;5.342;2023-06-10T03:43:09;20.70;99.90
17988;DHT22;9119;50.932;5.342;2023-06-10T03:45:35;20.70;99.90
17988;DHT22;9119;50.932;5.342;2023-06-10T03:48:01;20.80;99.90
17988;DHT22;9119;50.932;5.342;2023-06-10T03:50:29;20.80;99.90
17988;DHT22;9119;50.932;5.342;2023-06-10T03:52:54;20.80;99.90
17988;DHT22;9119;50.932;5.342;2023-06-10T03:55:20;20.80;99.90
17988;DHT22;9119;50.932;5.342;2023-06-10T03:57:47;20.60;99.90
17988;DHT22;9119;50.932;5.342;2023-06-10T04:00:14;20.60;99.90
17988;DHT22;9119;50.932;5.342;2023-06-10T04:02:41;20.60;99.90
17988;DHT22;9119;50.932;5.342;2023-06-10T04:05:14;20.50;99.90
17988;DHT22;9119;50.932;5.342;2023-06-10T04:07:41;20.50;99.90
17988;DHT22;9119;50.932;5.342;2023-06-10T04:10:08;20.50;99.90
17988;DHT22;9119;50.932;5.342;2023-06-10T04:12:35;20.50;99.90
17988;DHT22;9119;50.932;5.342;2023-06-10T04:15:01;20.50;99.90
17988;DHT22;9119;50.932;5.342;2023-06-10T04:17:27;20.40;99.90
17988;DHT22;9119;50.932;5.342;2023-06-10T04:19:53;20.50;99.90
17988;DHT22;9119;50.932;5.342;2023-06-10T04:22:20;20.40;99.90
17988;DHT22;9119;50.932;5.342;2023-06-10T04:24:46;20.50;99.90
17988;DHT22;9119;50.932;5.342;2023-06-10T04:27:11;20.50;99.90
17988;DHT22;9119;50.932;5.342;2023-06-10T04:29:37;20.50;99.90
17988;DHT22;9119;50.932;5.342;2023-06-10T04:32:03;20.60;99.90
17988;DHT22;9119;50.932;5.342;2023-06-10T04:34:31;20.60;99.90
17988;DHT22;9119;50.932;5.342;2023-06-10T04:36:56;20.50;99.90
17988;DHT22;9119;50.932;5.342;2023-06-10T04:39:22;20.60;99.90
17988;DHT22;9119;50.932;5.342;2023-06-10T04:41:48;20.60;99.90
17988;DHT22;9119;50.932;5.342;2023-06-10T04:44:14;20.60;99.90
17988;DHT22;9119;50.932;5.342;2023-06-10T04:46:42;20.60;99.90
17988;DHT22;9119;50.932;5.342;2023-06-10T04:49:08;20.70;99.90
17988;DHT22;9119;50.932;5.342;2023-06-10T04:51:33;20.70;99.90
17988;DHT22;9119;50.932;5.342;2023-06-10T04:53:59;20.70;99.90
17988;DHT22;9119;50.932;5.342;2023-06-10T04:56:29;20.70;99.90
17988;DHT22;9119;50.932;5.342;2023-06-10T04:58:56;20.80;99.90
17988;DHT22;9119;50.932;5.342;2023-06-10T05:01:22;20.90;99.90
17988;DHT22;9119;50.932;5.342;2023-06-10T05:03:47;20.90;99.90
17988;DHT22;9119;50.932;5.342;2023-06-10T05:06:13;20.90;99.90
17988;DHT22;9119;50.932;5.342;2023-06-10T05:08:39;20.90;99.90
17988;DHT22;9119;50.932;5.342;2023-06-10T05:11:04;21.10;99.90
17988;DHT22;9119;50.932;5.342;2023-06-10T05:13:30;21.10;99.90
17988;DHT22;9119;50.932;5.342;2023-06-10T05:15:59;21.10;99.90
17988;DHT22;9119;50.932;5.342;2023-06-10T05:18:28;21.20;99.90
17988;DHT22;9119;50.932;5.342;2023-06-10T05:20:53;21.30;99.90
17988;DHT22;9119;50.932;5.342;2023-06-10T05:23:20;21.30;99.90
17988;DHT22;9119;50.932;5.342;2023-06-10T05:25:46;21.30;99.90
17988;DHT22;9119;50.932;5.342;2023-06-10T05:28:12;21.40;99.90
17988;DHT22;9119;50.932;5.342;2023-06-10T05:30:38;21.40;99.90
17988;DHT22;9119;50.932;5.342;2023-06-10T05:33:04;21.50;99.90
17988;DHT22;9119;50.932;5.342;2023-06-10T05:35:30;21.50;99.90
17988;DHT22;9119;50.932;5.342;2023-06-10T05:37:56;21.60;99.90
17988;DHT22;9119;50.932;5.342;2023-06-10T05:40:22;21.70;99.90
17988;DHT22;9119;50.932;5.342;2023-06-10T05:42:47;21.80;99.90
17988;DHT22;9119;50.932;5.342;2023-06-10T05:45:13;21.90;99.90
17988;DHT22;9119;50.932;5.342;2023-06-10T05:47:39;21.90;99.90
17988;DHT22;9119;50.932;5.342;2023-06-10T05:50:05;22.00;99.90
17988;DHT22;9119;50.932;5.342;2023-06-10T05:52:36;22.10;99.90
17988;DHT22;9119;50.932;5.342;2023-06-10T05:55:04;22.20;99.90
17988;DHT22;9119;50.932;5.342;2023-06-10T05:57:30;22.30;99.90
17988;DHT22;9119;50.932;5.342;2023-06-10T05:59:56;22.90;99.90
17988;DHT22;9119;50.932;5.342;2023-06-10T06:02:22;23.40;99.90
17988;DHT22;9119;50.932;5.342;2023-06-10T06:04:47;23.30;99.90
17988;DHT22;9119;50.932;5.342;2023-06-10T06:07:13;23.10;99.90
17988;DHT22;9119;50.932;5.342;2023-06-10T06:09:39;23.20;99.90
17988;DHT22;9119;50.932;5.342;2023-06-10T06:12:05;23.30;99.90
17988;DHT22;9119;50.932;5.342;2023-06-10T06:14:36;23.20;99.90
17988;DHT22;9119;50.932;5.342;2023-06-10T06:17:02;23.20;99.90
17988;DHT22;9119;50.932;5.342;2023-06-10T06:19:27;23.20;99.90
17988;DHT22;9119;50.932;5.342;2023-06-10T06:21:53;23.20;99.90
17988;DHT22;9119;50.932;5.342;2023-06-10T06:24:19;23.30;99.90
17988;DHT22;9119;50.932;5.342;2023-06-10T06:26:44;23.40;99.90
17988;DHT22;9119;50.932;5.342;2023-06-10T06:29:10;23.50;99.90
17988;DHT22;9119;50.932;5.342;2023-06-10T06:31:36;23.70;99.90
17988;DHT22;9119;50.932;5.342;2023-06-10T06:34:02;23.70;99.90
17988;DHT22;9119;50.932;5.342;2023-06-10T06:36:27;23.80;99.90
17988;DHT22;9119;50.932;5.342;2023-06-10T06:38:53;23.80;99.90
17988;DHT22;9119;50.932;5.342;2023-06-10T06:41:19;23.80;99.90
17988;DHT22;9119;50.932;5.342;2023-06-10T06:43:45;23.90;99.90
17988;DHT22;9119;50.932;5.342;2023-06-10T06:46:10;24.00;99.90
17988;DHT22;9119;50.932;5.342;2023-06-10T06:48:36;23.90;99.90
17988;DHT22;9119;50.932;5.342;2023-06-10T06:51:01;23.80;99.90
17988;DHT22;9119;50.932;5.342;2023-06-10T06:53:28;23.90;99.90
17988;DHT22;9119;50.932;5.342;2023-06-10T06:55:53;24.00;99.90
17988;DHT22;9119;50.932;5.342;2023-06-10T06:58:19;24.10;99.90
17988;DHT22;9119;50.932;5.342;2023-06-10T07:00:45;24.30;99.90
17988;DHT22;9119;50.932;5.342;2023-06-10T07:03:10;24.30;99.90
17988;DHT22;9119;50.932;5.342;2023-06-10T07:05:37;24.30;99.90
17988;DHT22;9119;50.932;5.342;2023-06-10T07:08:03;24.40;99.90
17988;DHT22;9119;50.932;5.342;2023-06-10T07:10:28;24.40;99.90
17988;DHT22;9119;50.932;5.342;2023-06-10T07:12:54;24.50;99.90
17988;DHT22;9119;50.932;5.342;2023-06-10T07:15:20;24.40;99.90
17988;DHT22;9119;50.932;5.342;2023-06-10T07:17:46;24.60;99.90
17988;DHT22;9119;50.932;5.342;2023-06-10T07:20:12;24.60;99.90
17988;DHT22;9119;50.932;5.342;2023-06-10T07:22:38;24.70;99.90
17988;DHT22;9119;50.932;5.342;2023-06-10T07:25:06;24.80;99.90
17988;DHT22;9119;50.932;5.342;2023-06-10T07:27:35;25.00;99.90
17988;DHT22;9119;50.932;5.342;2023-06-10T07:30:03;25.10;99.90
17988;DHT22;9119;50.932;5.342;2023-06-10T07:32:30;25.10;99.90
17988;DHT22;9119;50.932;5.342;2023-06-10T07:34:55;25.10;99.90
17988;DHT22;9119;50.932;5.342;2023-06-10T07:37:21;25.30;99.90
17988;DHT22;9119;50.932;5.342;2023-06-10T07:39:47;25.40;99.90
17988;DHT22;9119;50.932;5.342;2023-06-10T07:42:12;25.30;99.90
17988;DHT22;9119;50.932;5.342;2023-06-10T07:44:38;25.40;99.90
17988;DHT22;9119;50.932;5.342;2023-06-10T07:47:04;25.30;99.90
17988;DHT22;9119;50.932;5.342;2023-06-10T07:49:30;25.40;99.90
17988;DHT22;9119;50.932;5.342;2023-06-10T07:51:55;25.20;99.90
17988;DHT22;9119;50.932;5.342;2023-06-10T07:54:21;25.50;99.90
17988;DHT22;9119;50.932;5.342;2023-06-10T07:56:47;25.60;99.90
17988;DHT22;9119;50.932;5.342;2023-06-10T07:59:14;25.70;99.90
17988;DHT22;9119;50.932;5.342;2023-06-10T08:01:39;25.80;99.90
17988;DHT22;9119;50.932;5.342;2023-06-10T08:04:06;25.90;99.90
17988;DHT22;9119;50.932;5.342;2023-06-10T08:06:32;25.80;99.90
17988;DHT22;9119;50.932;5.342;2023-06-10T08:08:57;25.80;99.90
17988;DHT22;9119;50.932;5.342;2023-06-10T08:11:23;26.00;99.90
17988;DHT22;9119;50.932;5.342;2023-06-10T08:13:49;26.00;99.90
17988;DHT22;9119;50.932;5.342;2023-06-10T08:16:15;26.00;99.90
17988;DHT22;9119;50.932;5.342;2023-06-10T08:18:41;26.00;99.90
17988;DHT22;9119;50.932;5.342;2023-06-10T08:21:06;26.20;99.90
17988;DHT22;9119;50.932;5.342;2023-06-10T08:23:32;26.30;99.90
17988;DHT22;9119;50.932;5.342;2023-06-10T08:25:58;26.40;99.90
17988;DHT22;9119;50.932;5.342;2023-06-10T08:28:23;26.50;99.90
17988;DHT22;9119;50.932;5.342;2023-06-10T08:30:52;26.50;99.90
17988;DHT22;9119;50.932;5.342;2023-06-10T08:33:18;26.70;99.90
17988;DHT22;9119;50.932;5.342;2023-06-10T08:35:44;26.90;99.90
17988;DHT22;9119;50.932;5.342;2023-06-10T08:38:10;26.80;99.90
17988;DHT22;9119;50.932;5.342;2023-06-10T08:40:35;26.80;99.90
17988;DHT22;9119;50.932;5.342;2023-06-10T08:43:17;26.80;99.90
17988;DHT22;9119;50.932;5.342;2023-06-10T08:45:46;26.90;99.90
17988;DHT22;9119;50.932;5.342;2023-06-10T08:48:14;27.00;99.90
17988;DHT22;9119;50.932;5.342;2023-06-10T08:50:42;27.10;99.90
17988;DHT22;9119;50.932;5.342;2023-06-10T08:53:10;27.20;99.90
17988;DHT22;9119;50.932;5.342;2023-06-10T08:55:42;27.40;99.90
17988;DHT22;9119;50.932;5.342;2023-06-10T08:58:10;27.40;99.90
17988;DHT22;9119;50.932;5.342;2023-06-10T09:00:37;27.50;99.90
17988;DHT22;9119;50.932;5.342;2023-06-10T09:03:04;27.70;99.90
17988;DHT22;9119;50.932;5.342;2023-06-10T09:05:33;27.70;99.90
17988;DHT22;9119;50.932;5.342;2023-06-10T09:08:00;27.80;99.90
17988;DHT22;9119;50.932;5.342;2023-06-10T09:10:36;28.00;99.90
17988;DHT22;9119;50.932;5.342;2023-06-10T09:13:10;28.20;99.90
17988;DHT22;9119;50.932;5.342;2023-06-10T09:15:36;28.20;99.90
17988;DHT22;9119;50.932;5.342;2023-06-10T09:18:05;28.10;99.90
17988;DHT22;9119;50.932;5.342;2023-06-10T09:20:30;28.20;99.90
17988;DHT22;9119;50.932;5.342;2023-06-10T09:22:56;28.40;99.90
17988;DHT22;9119;50.932;5.342;2023-06-10T09:25:37;28.40;99.90
17988;DHT22;9119;50.932;5.342;2023-06-10T09:28:04;28.50;99.90
17988;DHT22;9119;50.932;5.342;2023-06-10T09:30:32;28.70;99.90
17988;DHT22;9119;50.932;5.342;2023-06-10T09:33:02;28.90;99.90
17988;DHT22;9119;50.932;5.342;2023-06-10T09:35:30;29.30;99.90
17988;DHT22;9119;50.932;5.342;2023-06-10T09:37:57;29.70;99.90
17988;DHT22;9119;50.932;5.342;2023-06-10T09:40:23;29.90;99.90
17988;DHT22;9119;50.932;5.342;2023-06-10T09:42:54;30.20;99.90
17988;DHT22;9119;50.932;5.342;2023-06-10T09:45:21;30.20;99.90
17988;DHT22;9119;50.932;5.342;2023-06-10T09:47:47;30.30;99.90
17988;DHT22;9119;50.932;5.342;2023-06-10T09:50:13;30.40;99.90
17988;DHT22;9119;50.932;5.342;2023-06-10T09:52:39;30.50;99.90
17988;DHT22;9119;50.932;5.342;2023-06-10T09:55:08;30.40;99.90
17988;DHT22;9119;50.932;5.342;2023-06-10T09:57:36;30.70;99.90
17988;DHT22;9119;50.932;5.342;2023-06-10T10:00:06;31.10;99.90
17988;DHT22;9119;50.932;5.342;2023-06-10T10:02:44;31.10;99.90
17988;DHT22;9119;50.932;5.342;2023-06-10T10:05:10;31.10;99.90
17988;DHT22;9119;50.932;5.342;2023-06-10T10:07:36;31.30;99.90
17988;DHT22;9119;50.932;5.342;2023-06-10T10:10:01;31.70;99.90
17988;DHT22;9119;50.932;5.342;2023-06-10T10:12:27;31.70;99.90
17988;DHT22;9119;50.932;5.342;2023-06-10T10:14:54;31.30;99.90
17988;DHT22;9119;50.932;5.342;2023-06-10T10:17:21;31.30;99.90
17988;DHT22;9119;50.932;5.342;2023-06-10T10:19:53;31.20;99.90
17988;DHT22;9119;50.932;5.342;2023-06-10T10:22:26;31.60;99.90
17988;DHT22;9119;50.932;5.342;2023-06-10T10:24:56;31.70;99.90
17988;DHT22;9119;50.932;5.342;2023-06-10T10:27:36;31.80;99.90
17988;DHT22;9119;50.932;5.342;2023-06-10T10:30:07;31.80;99.90
17988;DHT22;9119;50.932;5.342;2023-06-10T10:32:45;31.60;99.90
17988;DHT22;9119;50.932;5.342;2023-06-10T10:35:21;31.90;99.90
17988;DHT22;9119;50.932;5.342;2023-06-10T10:37:53;31.70;99.90
17988;DHT22;9119;50.932;5.342;2023-06-10T10:40:22;31.80;99.90
17988;DHT22;9119;50.932;5.342;2023-06-10T10:42:49;31.70;99.90
17988;DHT22;9119;50.932;5.342;2023-06-10T10:45:15;31.80;99.90
17988;DHT22;9119;50.932;5.342;2023-06-10T10:47:42;32.10;99.90
17988;DHT22;9119;50.932;5.342;2023-06-10T10:50:16;32.30;99.90
17988;DHT22;9119;50.932;5.342;2023-06-10T10:52:52;32.40;99.90
17988;DHT22;9119;50.932;5.342;2023-06-10T10:55:19;32.20;99.90
17988;DHT22;9119;50.932;5.342;2023-06-10T10:58:11;32.30;99.90
17988;DHT22;9119;50.932;5.342;2023-06-10T11:00:44;32.60;99.90
17988;DHT22;9119;50.932;5.342;2023-06-10T11:03:16;33.10;98.80
17988;DHT22;9119;50.932;5.342;2023-06-10T11:05:46;33.20;99.60
17988;DHT22;9119;50.932;5.342;2023-06-10T11:11:26;33.10;98.50
17988;DHT22;9119;50.932;5.342;2023-06-10T11:14:07;32.90;97.70
17988;DHT22;9119;50.932;5.342;2023-06-10T11:16:39;33.00;98.20
17988;DHT22;9119;50.932;5.342;2023-06-10T11:19:05;32.60;99.10
17988;DHT22;9119;50.932;5.342;2023-06-10T11:21:31;32.60;99.10
17988;DHT22;9119;50.932;5.342;2023-06-10T11:23:58;32.70;97.40
17988;DHT22;9119;50.932;5.342;2023-06-10T11:31:32;33.40;96.40
17988;DHT22;9119;50.932;5.342;2023-06-10T11:34:00;33.30;96.90
17988;DHT22;9119;50.932;5.342;2023-06-10T11:36:27;32.90;97.20
17988;DHT22;9119;50.932;5.342;2023-06-10T11:38:57;33.20;97.30
17988;DHT22;9119;50.932;5.342;2023-06-10T11:41:27;33.60;97.10
17988;DHT22;9119;50.932;5.342;2023-06-10T11:43:53;33.80;96.10
17988;DHT22;9119;50.932;5.342;2023-06-10T11:46:22;33.80;96.20
17988;DHT22;9119;50.932;5.342;2023-06-10T11:48:52;33.60;95.90
17988;DHT22;9119;50.932;5.342;2023-06-10T11:51:18;33.80;95.50
17988;DHT22;9119;50.932;5.342;2023-06-10T11:53:45;34.10;94.10
17988;DHT22;9119;50.932;5.342;2023-06-10T11:56:11;34.20;93.80
17988;DHT22;9119;50.932;5.342;2023-06-10T11:58:38;33.80;95.70
17988;DHT22;9119;50.932;5.342;2023-06-10T12:01:06;33.40;93.50
17988;DHT22;9119;50.932;5.342;2023-06-10T12:03:38;33.50;93.40
17988;DHT22;9119;50.932;5.342;2023-06-10T12:06:06;33.60;94.00
17988;DHT22;9119;50.932;5.342;2023-06-10T12:08:32;33.70;94.50
17988;DHT22;9119;50.932;5.342;2023-06-10T12:11:02;34.10;93.10
17988;DHT22;9119;50.932;5.342;2023-06-10T12:13:28;33.70;92.70
17988;DHT22;9119;50.932;5.342;2023-06-10T12:15:54;33.80;93.30
17988;DHT22;9119;50.932;5.342;2023-06-10T12:18:23;34.10;93.20
17988;DHT22;9119;50.932;5.342;2023-06-10T12:20:50;33.90;93.00
17988;DHT22;9119;50.932;5.342;2023-06-10T12:23:17;34.10;93.20
17988;DHT22;9119;50.932;5.342;2023-06-10T12:25:50;33.90;92.70
17988;DHT22;9119;50.932;5.342;2023-06-10T12:28:18;33.90;91.90
17988;DHT22;9119;50.932;5.342;2023-06-10T12:30:46;33.90;91.90
17988;DHT22;9119;50.932;5.342;2023-06-10T12:33:22;34.30;92.10
17988;DHT22;9119;50.932;5.342;2023-06-10T12:35:49;34.30;92.60
17988;DHT22;9119;50.932;5.342;2023-06-10T12:38:24;34.10;93.10
17988;DHT22;9119;50.932;5.342;2023-06-10T12:40:50;34.20;92.60
17988;DHT22;9119;50.932;5.342;2023-06-10T12:43:23;33.80;92.30
17988;DHT22;9119;50.932;5.342;2023-06-10T12:45:49;33.80;91.40
17988;DHT22;9119;50.932;5.342;2023-06-10T12:48:19;34.10;91.20
17988;DHT22;9119;50.932;5.342;2023-06-10T12:50:56;34.80;91.30
17988;DHT22;9119;50.932;5.342;2023-06-10T12:53:23;34.90;91.10
17988;DHT22;9119;50.932;5.342;2023-06-10T12:55:50;34.50;90.50
17988;DHT22;9119;50.932;5.342;2023-06-10T12:58:16;34.10;89.20
17988;DHT22;9119;50.932;5.342;2023-06-10T13:00:42;34.30;91.00
17988;DHT22;9119;50.932;5.342;2023-06-10T13:03:09;34.40;90.80
17988;DHT22;9119;50.932;5.342;2023-06-10T13:05:38;34.50;90.90
17988;DHT22;9119;50.932;5.342;2023-06-10T13:08:08;35.20;90.40
17988;DHT22;9119;50.932;5.342;2023-06-10T13:10:35;35.10;88.80
17988;DHT22;9119;50.932;5.342;2023-06-10T13:13:02;34.90;87.90
17988;DHT22;9119;50.932;5.342;2023-06-10T13:15:30;34.90;87.80
17988;DHT22;9119;50.932;5.342;2023-06-10T13:17:56;35.20;89.00
17988;DHT22;9119;50.932;5.342;2023-06-10T13:20:22;35.10;89.80
17988;DHT22;9119;50.932;5.342;2023-06-10T13:22:48;34.40;89.90
17988;DHT22;9119;50.932;5.342;2023-06-10T13:25:15;34.90;90.00
17988;DHT22;9119;50.932;5.342;2023-06-10T13:27:40;34.80;90.10
17988;DHT22;9119;50.932;5.342;2023-06-10T13:30:08;34.50;90.00
17988;DHT22;9119;50.932;5.342;2023-06-10T13:32:37;34.40;90.20
17988;DHT22;9119;50.932;5.342;2023-06-10T13:35:03;34.90;86.80
17988;DHT22;9119;50.932;5.342;2023-06-10T13:37:29;35.00;86.10
17988;DHT22;9119;50.932;5.342;2023-06-10T13:39:55;34.70;87.40
17988;DHT22;9119;50.932;5.342;2023-06-10T13:42:21;34.50;87.50
17988;DHT22;9119;50.932;5.342;2023-06-10T13:44:47;34.70;85.20
17988;DHT22;9119;50.932;5.342;2023-06-10T13:47:14;34.90;87.40
17988;DHT22;9119;50.932;5.342;2023-06-10T13:49:40;35.40;88.10
17988;DHT22;9119;50.932;5.342;2023-06-10T13:52:07;35.50;89.10
17988;DHT22;9119;50.932;5.342;2023-06-10T13:54:33;34.80;87.60
17988;DHT22;9119;50.932;5.342;2023-06-10T13:56:59;34.90;87.80
17988;DHT22;9119;50.932;5.342;2023-06-10T13:59:25;34.80;88.00
17988;DHT22;9119;50.932;5.342;2023-06-10T14:01:51;35.00;86.90
17988;DHT22;9119;50.932;5.342;2023-06-10T14:04:17;34.60;85.90
17988;DHT22;9119;50.932;5.342;2023-06-10T14:06:43;34.50;85.10
17988;DHT22;9119;50.932;5.342;2023-06-10T14:09:09;34.60;82.60
17988;DHT22;9119;50.932;5.342;2023-06-10T14:11:34;34.60;82.00
17988;DHT22;9119;50.932;5.342;2023-06-10T14:14:00;34.40;83.40
17988;DHT22;9119;50.932;5.342;2023-06-10T14:16:27;34.60;82.30
17988;DHT22;9119;50.932;5.342;2023-06-10T14:18:53;34.80;82.70
17988;DHT22;9119;50.932;5.342;2023-06-10T14:21:19;35.20;82.10
17988;DHT22;9119;50.932;5.342;2023-06-10T14:23:44;35.10;82.80
17988;DHT22;9119;50.932;5.342;2023-06-10T14:26:11;35.50;81.90
17988;DHT22;9119;50.932;5.342;2023-06-10T14:28:37;35.20;82.70
17988;DHT22;9119;50.932;5.342;2023-06-10T14:31:03;34.90;83.50
17988;DHT22;9119;50.932;5.342;2023-06-10T14:33:29;34.90;83.90
17988;DHT22;9119;50.932;5.342;2023-06-10T14:35:56;35.20;84.40
17988;DHT22;9119;50.932;5.342;2023-06-10T14:38:22;35.00;84.20
17988;DHT22;9119;50.932;5.342;2023-06-10T14:40:48;34.40;85.10
17988;DHT22;9119;50.932;5.342;2023-06-10T14:43:13;34.70;84.00
17988;DHT22;9119;50.932;5.342;2023-06-10T14:45:42;34.50;83.60
17988;DHT22;9119;50.932;5.342;2023-06-10T14:48:08;34.60;84.40
17988;DHT22;9119;50.932;5.342;2023-06-10T14:50:37;34.60;83.80
17988;DHT22;9119;50.932;5.342;2023-06-10T14:53:03;34.80;83.30
17988;DHT22;9119;50.932;5.342;2023-06-10T14:55:29;34.80;84.10
17988;DHT22;9119;50.932;5.342;2023-06-10T14:57:55;34.70;84.60
17988;DHT22;9119;50.932;5.342;2023-06-10T15:00:23;34.80;85.50
17988;DHT22;9119;50.932;5.342;2023-06-10T15:02:49;35.10;84.40
17988;DHT22;9119;50.932;5.342;2023-06-10T15:05:16;34.80;83.60
17988;DHT22;9119;50.932;5.342;2023-06-10T15:07:42;34.80;83.80
17988;DHT22;9119;50.932;5.342;2023-06-10T15:10:08;34.90;83.90
17988;DHT22;9119;50.932;5.342;2023-06-10T15:12:35;35.30;83.60
17988;DHT22;9119;50.932;5.342;2023-06-10T15:15:01;35.90;83.90
17988;DHT22;9119;50.932;5.342;2023-06-10T15:17:28;35.90;83.90
17988;DHT22;9119;50.932;5.342;2023-06-10T15:19:54;35.60;87.90
17988;DHT22;9119;50.932;5.342;2023-06-10T15:22:23;35.10;89.60
17988;DHT22;9119;50.932;5.342;2023-06-10T15:24:48;34.30;90.20
17988;DHT22;9119;50.932;5.342;2023-06-10T15:27:14;33.30;90.80
17988;DHT22;9119;50.932;5.342;2023-06-10T15:29:40;32.50;90.60
17988;DHT22;9119;50.932;5.342;2023-06-10T15:32:06;32.40;90.90
17988;DHT22;9119;50.932;5.342;2023-06-10T15:34:32;32.90;90.80
17988;DHT22;9119;50.932;5.342;2023-06-10T15:36:58;33.20;90.50
17988;DHT22;9119;50.932;5.342;2023-06-10T15:39:24;33.30;90.50
17988;DHT22;9119;50.932;5.342;2023-06-10T15:41:51;33.30;90.90
17988;DHT22;9119;50.932;5.342;2023-06-10T15:44:19;33.10;90.90
17988;DHT22;9119;50.932;5.342;2023-06-10T15:46:45;32.80;91.20
17988;DHT22;9119;50.932;5.342;2023-06-10T15:49:11;32.80;91.20
17988;DHT22;9119;50.932;5.342;2023-06-10T15:51:40;33.00;91.20
17988;DHT22;9119;50.932;5.342;2023-06-10T15:54:05;33.40;90.80
17988;DHT22;9119;50.932;5.342;2023-06-10T15:56:31;33.50;90.50
17988;DHT22;9119;50.932;5.342;2023-06-10T15:58:58;33.70;90.70